Home PIREPS Pireps

Flight WIN1004

  • Submitted By: Carl Hermans
  • Departure Airport: Bruxelles National (EBBR)
  • Arrival Airport: airport Innsbruck (LOWI)
  • Aircraft: YOUR CHOICE (YC)
  • Flight Time: 01.25
  • Date Submitted: 23/01/2018
  • Status: Accepted
Flight Details
Gross Revenue:
(25 load / € 0.00 per unit
€ 0.00
Fuel Cost:
(3142 fuel used @ 5.1 / unit)
€ 16,024.20

Additional Log Information:

View Log

Aircraft Used in flight is x737-800 TUIfly HD D-ATUH (New Livery)
14:54 Brakes are On
14:55 Brakes are Released
14:56 You Took off @ 167 Knots and Flaps at Position 3
Departure Weather
EBBR 231320Z 21013KT 9999 FEW013 BKN031 10/06 Q1020 NOSIGrn
14:56 Landing Gear Up @ 181 Knots and 190 Feet
14:57 Below FL100 you need to turn on the landing lights
15:49 Overspeed
15:51 Below 10000 feet you are not allowed to go over 250 knots
15:52 Recovered from Overspeed
15:53 Stalling
15:53 Recovered from Stall
15:53 Stalling
15:53 You exceeded maximum bank angle
15:53 Recovered from Stall
15:53 Stalling
15:53 Recovered from Stall
15:53 Stalling
15:53 Recovered from Stall
15:54 Stalling
15:55 Recovered from Stall
15:55 Stalling
15:55 Recovered from Stall
15:55 Stalling
15:55 Recovered from Stall
15:55 Stalling
15:55 Recovered from Stall
16:12 Landing Gear Down @ 178 Knots and 8200 Feet
16:20 Brakes are On
16:20 You Landed @ 148 Knots and with -1350 Vertical Speed
Arrival Weather
LOWI 231450Z 18003KT 9999 FEW015 04/02 Q1027 NOSIGrn
16:20 Your Landing was very hard
16:20 Brussels Bel-Track1.0.1.2

Route Map

Corporate About Us Our Team Vacancies Information Fleet Route Network Rules and Regulations Operations Flight Schedules Event Center Tours Partners IVAO Vatsim Acars dev FSCB

fb Users Online Belgium Marc Claus, Belgium ISMAIL SAIF , Belgium Martin Witters,
3 Pilot(s) and 212 Guest(s) Online
CMS by phpVMS - Design by Crazycreatives.com - Copyright © 2018 - Brussels Airlines Virtual